Aviation Digital Data Service (ADDS)

Output produced by METARs form (0903 UTC 19 April 2019)
found at http://www.aviationweather.gov/metar/data/
 
Forecast for: EBBL (KLEINE-BROGEL(BA, BE)
Text: TAF EBBL 190841Z 1910/1919 08010G20KT 9999 FEW250
Forecast period: 1000 to 1900 UTC 19 April 2019
Forecast type: FROM: standard forecast or significant change
Winds: from the E (80 degrees) at 12 MPH (10 knots; 5.1 m/s)
gusting to 23 MPH (20 knots; 10.3 m/s)
Visibility: 6 or more miles 10+ km)
Ceiling: at least 12,000 feet AGL
Clouds: few clouds at 25000 feet AGL
Weather: no significant weather forecast for this period